createdAt,value
2019-03-11T00:00:39.450Z,2.22
2019-03-11T00:03:07.671Z,2.47
2019-03-11T00:05:35.584Z,2.17
2019-03-11T00:08:03.932Z,2.45
2019-03-11T00:10:34.848Z,2.22
2019-03-11T00:13:02.519Z,2.27
2019-03-11T00:15:30.521Z,2.20
2019-03-11T00:17:58.171Z,2.20
2019-03-11T00:20:26.233Z,2.10
2019-03-11T00:22:54.712Z,2.27
2019-03-11T00:25:24.411Z,2.05
2019-03-11T00:27:53.183Z,2.25
2019-03-11T00:30:23.092Z,2.33
2019-03-11T00:32:51.867Z,2.30
2019-03-11T00:35:20.633Z,2.37
2019-03-11T00:37:49.289Z,1.87
2019-03-11T00:40:17.119Z,2.47
2019-03-11T00:42:45.366Z,2.35
2019-03-11T00:45:14.198Z,2.37
2019-03-11T00:47:42.384Z,2.47
2019-03-11T00:50:11.186Z,2.25
2019-03-11T00:52:39.850Z,2.00
2019-03-11T00:55:09.192Z,1.67
2019-03-11T00:57:38.086Z,2.37
2019-03-11T01:00:13.570Z,2.12
2019-03-11T01:02:42.468Z,1.95
2019-03-11T01:05:10.917Z,2.08
2019-03-11T01:07:40.111Z,2.30
2019-03-11T01:10:08.619Z,2.92
2019-03-11T01:12:37.103Z,2.35
2019-03-11T01:15:06.297Z,2.25
2019-03-11T01:17:34.645Z,2.05
2019-03-11T01:20:02.836Z,2.17
2019-03-11T01:22:30.501Z,2.17
2019-03-11T01:24:58.546Z,2.02
2019-03-11T01:27:26.373Z,1.72
2019-03-11T01:29:56.754Z,2.12
2019-03-11T01:32:24.806Z,1.85
2019-03-11T01:34:52.763Z,1.98
2019-03-11T01:37:20.537Z,1.90
2019-03-11T01:39:49.213Z,1.95
2019-03-11T01:42:17.182Z,2.20
2019-03-11T01:44:44.912Z,1.95
2019-03-11T01:47:12.888Z,2.15
2019-03-11T01:49:42.042Z,2.22
2019-03-11T01:52:09.891Z,2.47
2019-03-11T01:54:37.687Z,2.40
2019-03-11T01:57:05.931Z,2.12
2019-03-11T01:59:33.719Z,2.33
2019-03-11T02:02:01.835Z,2.40
2019-03-11T02:04:30.259Z,1.70
2019-03-11T02:06:59.084Z,2.20
2019-03-11T02:09:27.159Z,2.20
2019-03-11T02:11:55.698Z,2.17
2019-03-11T02:14:23.874Z,1.87
2019-03-11T02:16:51.832Z,2.27
2019-03-11T02:19:19.997Z,2.20
2019-03-11T02:21:48.332Z,1.80
2019-03-11T02:24:16.547Z,2.40
2019-03-11T02:26:44.641Z,2.05
2019-03-11T02:29:12.464Z,2.25
2019-03-11T02:31:41.975Z,2.00
2019-03-11T02:34:11.383Z,2.60
2019-03-11T02:36:57.646Z,2.05
2019-03-11T02:39:25.698Z,2.50
2019-03-11T02:41:53.420Z,2.05
2019-03-11T02:44:21.231Z,2.40
2019-03-11T02:46:49.186Z,2.35
2019-03-11T02:49:17.643Z,2.37
2019-03-11T02:51:45.456Z,1.85
2019-03-11T02:54:14.213Z,1.77
2019-03-11T02:56:41.936Z,2.58
2019-03-11T02:59:09.900Z,2.45
2019-03-11T03:01:56.125Z,2.12
2019-03-11T03:04:28.441Z,2.42
2019-03-11T03:06:56.639Z,2.05
2019-03-11T03:09:24.700Z,2.67
2019-03-11T03:11:53.046Z,3.33
2019-03-11T03:14:20.944Z,2.52
2019-03-11T03:16:48.948Z,2.20
2019-03-11T03:19:17.293Z,2.65
2019-03-11T03:21:45.275Z,2.12
2019-03-11T03:24:13.007Z,2.17
2019-03-11T03:26:40.826Z,2.17
2019-03-11T03:29:09.190Z,1.90
2019-03-11T03:31:37.190Z,2.22
2019-03-11T03:34:05.272Z,1.90
2019-03-11T03:36:34.172Z,2.30
2019-03-11T03:39:02.181Z,2.25
2019-03-11T03:41:29.957Z,2.17
2019-03-11T03:43:57.762Z,2.30
2019-03-11T03:46:25.972Z,2.30
2019-03-11T03:48:55.565Z,2.08
2019-03-11T03:51:23.610Z,2.15
2019-03-11T03:53:51.475Z,2.77
2019-03-11T03:56:19.654Z,2.70
2019-03-11T03:58:47.957Z,2.42
2019-03-11T04:01:16.762Z,2.30
2019-03-11T04:03:45.099Z,2.30
2019-03-11T04:06:12.896Z,2.27
2019-03-11T04:08:40.622Z,2.08
2019-03-11T04:11:08.619Z,2.45
2019-03-11T04:13:36.464Z,2.22
2019-03-11T04:16:04.556Z,2.10
2019-03-11T04:18:56.470Z,2.35
2019-03-11T04:21:25.753Z,2.12
2019-03-11T04:23:53.743Z,2.25
2019-03-11T04:26:26.702Z,2.12
2019-03-11T04:28:55.186Z,2.40
2019-03-11T04:31:23.260Z,2.50
2019-03-11T04:33:51.969Z,2.10
2019-03-11T04:36:19.977Z,2.00
2019-03-11T04:38:47.755Z,1.82
2019-03-11T04:41:15.688Z,2.02
2019-03-11T04:43:45.827Z,1.92
2019-03-11T04:46:14.249Z,2.08
2019-03-11T04:48:43.741Z,2.17
2019-03-11T04:51:11.625Z,2.27
2019-03-11T04:53:40.205Z,2.08
2019-03-11T04:56:08.337Z,2.35
2019-03-11T04:58:37.470Z,2.25
2019-03-11T05:01:05.941Z,2.17
2019-03-11T05:03:34.045Z,1.90
2019-03-11T05:06:01.846Z,3.12
2019-03-11T05:08:30.030Z,2.08
2019-03-11T05:10:58.063Z,2.35
2019-03-11T05:13:25.782Z,2.37
2019-03-11T05:15:53.942Z,1.75
2019-03-11T05:18:21.880Z,2.22
2019-03-11T05:20:49.844Z,2.12
2019-03-11T05:23:18.375Z,1.80
2019-03-11T05:25:46.191Z,2.20
2019-03-11T05:28:14.034Z,2.08
2019-03-11T05:30:41.714Z,1.40
2019-03-11T05:33:09.493Z,1.95
2019-03-11T05:35:37.875Z,2.00
2019-03-11T05:38:05.624Z,1.98
2019-03-11T05:40:34.343Z,2.02
2019-03-11T05:43:02.210Z,1.70
2019-03-11T05:45:30.051Z,2.00
2019-03-11T05:47:57.784Z,2.20
2019-03-11T05:50:26.363Z,2.22
2019-03-11T05:52:54.392Z,2.10
2019-03-11T05:55:22.965Z,2.00
2019-03-11T05:57:51.037Z,2.00
2019-03-11T06:00:22.517Z,1.62
2019-03-11T06:02:50.674Z,1.90
2019-03-11T06:05:18.481Z,1.92
2019-03-11T06:07:46.482Z,2.02
2019-03-11T06:10:15.049Z,1.82
2019-03-11T06:12:43.855Z,1.75
2019-03-11T06:15:11.838Z,2.00
2019-03-11T06:17:40.105Z,2.12
2019-03-11T06:20:42.096Z,1.92
2019-03-11T06:23:11.016Z,1.77
2019-03-11T06:25:39.292Z,1.70
2019-03-11T06:28:07.508Z,1.90
2019-03-11T06:30:35.930Z,2.40
2019-03-11T06:33:04.972Z,1.80
2019-03-11T06:35:32.832Z,1.77
2019-03-11T06:38:00.725Z,1.90
2019-03-11T06:40:28.901Z,2.62
2019-03-11T06:42:56.761Z,1.82
2019-03-11T06:45:24.812Z,1.92
2019-03-11T06:47:53.170Z,1.85
2019-03-11T06:50:21.149Z,1.50
2019-03-11T06:52:48.913Z,1.80
2019-03-11T06:55:17.698Z,1.50
2019-03-11T06:57:46.053Z,2.00
2019-03-11T07:00:15.457Z,1.85
2019-03-11T07:02:43.774Z,1.55
2019-03-11T07:05:20.159Z,2.10
2019-03-11T07:07:41.692Z,1.40
2019-03-11T07:10:10.017Z,1.70
2019-03-11T07:12:38.039Z,1.80
2019-03-11T07:15:07.118Z,1.72
2019-03-11T07:17:35.763Z,1.60
2019-03-11T07:20:04.550Z,1.70
2019-03-11T07:22:32.551Z,2.10
2019-03-11T07:25:00.386Z,1.87
2019-03-11T07:27:28.938Z,1.62
2019-03-11T07:29:56.764Z,1.82
2019-03-11T07:32:24.640Z,1.35
2019-03-11T07:34:52.259Z,1.35
2019-03-11T07:37:20.165Z,1.82
2019-03-11T07:39:48.138Z,1.90
2019-03-11T07:42:17.039Z,1.92
2019-03-11T07:44:45.017Z,1.55
2019-03-11T07:47:13.806Z,1.80
2019-03-11T07:49:42.018Z,2.05
2019-03-11T07:52:10.338Z,1.60
2019-03-11T07:54:38.876Z,1.57
2019-03-11T07:57:06.579Z,1.50
2019-03-11T07:59:34.870Z,1.57
2019-03-11T08:02:02.956Z,1.75
2019-03-11T08:04:31.411Z,1.72
2019-03-11T08:07:00.297Z,1.70
2019-03-11T08:09:37.427Z,1.70
2019-03-11T08:11:58.789Z,1.77
2019-03-11T08:14:27.052Z,2.05
2019-03-11T08:16:55.853Z,1.98
2019-03-11T08:19:24.866Z,2.00
2019-03-11T08:21:53.539Z,2.12
2019-03-11T08:24:21.632Z,2.37
2019-03-11T08:26:49.856Z,3.08
2019-03-11T08:29:19.193Z,3.25
2019-03-11T08:31:47.509Z,3.30
2019-03-11T08:34:16.105Z,3.87
2019-03-11T08:36:43.915Z,4.58
2019-03-11T08:39:11.799Z,4.55
2019-03-11T08:41:41.547Z,4.25
2019-03-11T08:44:09.326Z,4.85
2019-03-11T08:46:37.459Z,5.10
2019-03-11T08:49:05.510Z,5.12
2019-03-11T08:51:33.732Z,5.25
2019-03-11T08:54:01.548Z,5.37
2019-03-11T08:56:29.419Z,5.95
2019-03-11T08:58:58.247Z,5.62
2019-03-11T09:01:26.038Z,6.25
2019-03-11T09:03:53.943Z,5.75
2019-03-11T09:06:23.395Z,4.95
2019-03-11T09:08:51.199Z,5.10
2019-03-11T09:11:19.809Z,5.67
2019-03-11T09:13:48.129Z,6.47
2019-03-11T09:16:16.076Z,5.85
2019-03-11T09:18:44.128Z,5.80
2019-03-11T09:21:11.821Z,6.92
2019-03-11T09:23:39.661Z,5.40
2019-03-11T09:26:07.498Z,6.00
2019-03-11T09:28:35.520Z,5.47
2019-03-11T09:31:05.039Z,6.45
2019-03-11T09:33:32.809Z,5.78
2019-03-11T09:36:00.651Z,5.87
2019-03-11T09:38:28.713Z,5.95
2019-03-11T09:40:56.466Z,5.80
2019-03-11T09:43:24.208Z,5.17
2019-03-11T09:45:52.719Z,5.87
2019-03-11T09:48:21.695Z,5.25
2019-03-11T09:50:49.694Z,5.17
2019-03-11T09:53:18.396Z,5.15
2019-03-11T09:55:46.648Z,5.20
2019-03-11T09:58:14.363Z,6.80
2019-03-11T10:00:42.567Z,5.55
2019-03-11T10:03:10.855Z,5.10
2019-03-11T10:05:38.560Z,5.20
2019-03-11T10:08:06.176Z,5.70
2019-03-11T10:10:33.881Z,5.62
2019-03-11T10:13:02.080Z,5.42
2019-03-11T10:15:30.149Z,4.58
2019-03-11T10:17:59.528Z,5.20
2019-03-11T10:20:27.713Z,5.15
2019-03-11T10:22:55.665Z,5.75
2019-03-11T10:25:24.257Z,4.92
2019-03-11T10:27:52.064Z,4.85
2019-03-11T10:30:20.193Z,4.53
2019-03-11T10:32:48.130Z,4.87
2019-03-11T10:35:30.897Z,4.87
2019-03-11T10:37:45.718Z,4.40
2019-03-11T10:40:16.356Z,4.58
2019-03-11T10:42:44.087Z,4.65
2019-03-11T10:45:12.610Z,4.55
2019-03-11T10:47:40.412Z,4.25
2019-03-11T10:50:09.458Z,4.62
2019-03-11T10:52:37.199Z,3.85
2019-03-11T10:55:05.818Z,3.62
2019-03-11T10:57:33.880Z,4.40
2019-03-11T11:00:02.051Z,4.08
2019-03-11T11:02:30.118Z,3.98
2019-03-11T11:04:58.692Z,3.55
2019-03-11T11:07:26.464Z,4.00
2019-03-11T11:09:54.312Z,3.92
2019-03-11T11:12:22.004Z,4.22
2019-03-11T11:14:49.685Z,3.67
2019-03-11T11:17:18.647Z,4.30
2019-03-11T11:19:48.609Z,3.55
2019-03-11T11:22:18.724Z,3.40
2019-03-11T11:24:49.081Z,3.10
2019-03-11T11:27:18.718Z,3.85
2019-03-11T11:29:49.602Z,3.50
2019-03-11T11:32:19.407Z,4.03
2019-03-11T11:34:49.073Z,3.20
2019-03-11T11:37:19.577Z,3.67
2019-03-11T11:39:49.152Z,3.33
2019-03-11T11:42:19.066Z,3.80
2019-03-11T11:44:47.774Z,3.12
2019-03-11T11:47:16.260Z,3.17
2019-03-11T11:49:44.831Z,3.20
2019-03-11T11:52:12.942Z,2.95
2019-03-11T11:54:41.120Z,3.20
2019-03-11T11:57:09.143Z,3.10
2019-03-11T11:59:37.588Z,3.10
2019-03-11T12:02:05.901Z,3.27
2019-03-11T12:04:33.837Z,2.72
2019-03-11T12:07:01.856Z,2.42
2019-03-11T12:09:29.805Z,3.37
2019-03-11T12:11:57.600Z,3.05
2019-03-11T12:14:25.830Z,3.10
2019-03-11T12:16:54.915Z,2.65
2019-03-11T12:19:23.905Z,3.27
2019-03-11T12:21:52.496Z,2.42
2019-03-11T12:24:20.402Z,2.77
2019-03-11T12:26:48.244Z,2.67
2019-03-11T12:29:16.129Z,2.45
2019-03-11T12:31:43.842Z,2.33
2019-03-11T12:34:11.935Z,2.30
2019-03-11T12:36:39.601Z,2.30
2019-03-11T12:39:07.281Z,2.30
2019-03-11T12:41:34.959Z,2.20
2019-03-11T12:44:02.661Z,2.62
2019-03-11T12:46:30.407Z,2.77
2019-03-11T12:48:58.805Z,2.75
2019-03-11T12:51:26.867Z,2.35
2019-03-11T12:53:54.787Z,2.40
2019-03-11T12:56:23.071Z,2.37
2019-03-11T12:58:51.528Z,2.33
2019-03-11T13:01:19.404Z,2.42
2019-03-11T13:03:48.656Z,2.25
2019-03-11T13:06:16.928Z,2.15
2019-03-11T13:08:45.172Z,2.37
2019-03-11T13:11:14.345Z,2.30
2019-03-11T13:13:42.501Z,2.00
2019-03-11T13:16:10.389Z,2.17
2019-03-11T13:18:44.347Z,2.15
2019-03-11T13:21:28.106Z,2.55
2019-03-11T13:23:56.660Z,1.87
2019-03-11T13:26:24.734Z,2.42
2019-03-11T13:28:53.467Z,1.95
2019-03-11T13:31:21.759Z,2.00
2019-03-11T13:33:50.028Z,1.72
2019-03-11T13:36:18.148Z,2.20
2019-03-11T13:38:46.501Z,2.02
2019-03-11T13:41:15.306Z,2.12
2019-03-11T13:43:43.671Z,2.10
2019-03-11T13:46:11.779Z,2.20
2019-03-11T13:48:40.002Z,1.72
2019-03-11T13:51:07.804Z,1.85
2019-03-11T13:53:35.986Z,1.60
2019-03-11T13:56:03.947Z,1.67
2019-03-11T13:58:33.339Z,1.77
2019-03-11T14:01:01.952Z,1.98
2019-03-11T14:03:29.834Z,1.62
2019-03-11T14:05:57.992Z,1.90
2019-03-11T14:08:26.715Z,1.70
2019-03-11T14:10:54.782Z,2.05
2019-03-11T14:13:23.037Z,1.92
2019-03-11T14:15:50.769Z,1.52
2019-03-11T14:18:18.655Z,1.80
2019-03-11T14:20:46.757Z,1.95
2019-03-11T14:23:15.129Z,1.75
2019-03-11T14:25:43.733Z,1.40
2019-03-11T14:28:13.814Z,1.50
2019-03-11T14:30:41.339Z,1.55
2019-03-11T14:33:09.750Z,1.75
2019-03-11T14:35:37.864Z,1.80
2019-03-11T14:38:05.607Z,1.70
2019-03-11T14:40:33.614Z,1.72
2019-03-11T14:43:01.306Z,1.85
2019-03-11T14:45:29.415Z,1.82
2019-03-11T14:47:57.775Z,1.57
2019-03-11T14:50:25.609Z,2.42
2019-03-11T14:52:53.463Z,1.92
2019-03-11T14:55:21.813Z,2.00
2019-03-11T14:57:49.795Z,1.40
2019-03-11T15:00:18.703Z,1.70
2019-03-11T15:02:46.583Z,1.72
2019-03-11T15:05:15.222Z,1.82
2019-03-11T15:07:42.909Z,1.90
2019-03-11T15:10:11.657Z,1.85
2019-03-11T15:12:39.532Z,1.80
2019-03-11T15:15:11.264Z,2.25
2019-03-11T15:17:39.428Z,1.67
2019-03-11T15:20:07.586Z,1.90
2019-03-11T15:22:35.745Z,1.80
2019-03-11T15:25:04.845Z,2.05
2019-03-11T15:27:33.199Z,1.72
2019-03-11T15:30:01.066Z,1.92
2019-03-11T15:32:28.778Z,2.00
2019-03-11T15:34:57.347Z,1.52
2019-03-11T15:37:25.114Z,1.60
2019-03-11T15:39:52.793Z,1.52
2019-03-11T15:42:20.523Z,1.92
2019-03-11T15:44:49.079Z,1.72
2019-03-11T15:47:16.847Z,1.87
2019-03-11T15:49:44.951Z,2.00
2019-03-11T15:52:12.916Z,1.82
2019-03-11T15:54:41.793Z,1.70
2019-03-11T15:57:09.715Z,1.85
2019-03-11T15:59:38.105Z,1.52
2019-03-11T16:02:05.962Z,1.60
2019-03-11T16:04:34.099Z,1.60
2019-03-11T16:07:01.914Z,1.77
2019-03-11T16:09:30.107Z,1.62
2019-03-11T16:11:58.493Z,1.70
2019-03-11T16:14:26.446Z,2.25
2019-03-11T16:16:54.702Z,2.27
2019-03-11T16:19:41.839Z,1.45
2019-03-11T16:22:34.783Z,1.90
2019-03-11T16:25:05.239Z,1.70
2019-03-11T16:27:34.196Z,1.90
2019-03-11T16:30:02.022Z,2.00
2019-03-11T16:32:29.828Z,1.50
2019-03-11T16:34:58.189Z,2.12
2019-03-11T16:37:26.500Z,1.90
2019-03-11T16:39:55.408Z,1.90
2019-03-11T16:42:23.870Z,1.70
2019-03-11T16:44:53.227Z,1.87
2019-03-11T16:47:21.103Z,1.80
2019-03-11T16:49:49.580Z,1.90
2019-03-11T16:52:17.819Z,1.60
2019-03-11T16:54:45.541Z,1.90
2019-03-11T16:57:13.292Z,2.00
2019-03-11T16:59:41.405Z,1.70
2019-03-11T17:02:09.344Z,1.80
2019-03-11T17:04:37.517Z,1.80
2019-03-11T17:07:05.967Z,1.98
2019-03-11T17:09:34.513Z,1.70
2019-03-11T17:12:02.746Z,2.17
2019-03-11T17:14:30.494Z,1.70
2019-03-11T17:16:58.445Z,2.45
2019-03-11T17:19:26.126Z,1.60
2019-03-11T17:21:53.885Z,1.70
2019-03-11T17:24:22.045Z,1.60
2019-03-11T17:26:50.294Z,1.67
2019-03-11T17:29:18.801Z,1.52
2019-03-11T17:31:46.566Z,1.62
2019-03-11T17:34:16.796Z,2.10
2019-03-11T17:36:44.644Z,1.62
2019-03-11T17:39:12.554Z,1.77
2019-03-11T17:41:40.711Z,1.90
2019-03-11T17:44:10.531Z,1.60
2019-03-11T17:46:38.356Z,1.60
2019-03-11T17:49:06.625Z,1.80
2019-03-11T17:51:35.116Z,1.40
2019-03-11T17:54:02.973Z,2.10
2019-03-11T17:56:30.935Z,1.70
2019-03-11T17:58:58.654Z,1.80
2019-03-11T18:01:26.357Z,1.55
2019-03-11T18:03:54.725Z,1.77
2019-03-11T18:06:22.405Z,1.70
2019-03-11T18:08:50.328Z,1.67
2019-03-11T18:11:18.599Z,1.80
2019-03-11T18:13:46.621Z,1.75
2019-03-11T18:16:14.402Z,1.77
2019-03-11T18:18:42.094Z,1.75
2019-03-11T18:21:09.745Z,1.60
2019-03-11T18:23:37.394Z,1.85
2019-03-11T18:26:06.353Z,2.20
2019-03-11T18:28:34.287Z,1.98
2019-03-11T18:31:02.238Z,2.12
2019-03-11T18:33:29.931Z,1.87
2019-03-11T18:35:58.143Z,2.42
2019-03-11T18:39:46.214Z,2.30
2019-03-11T18:42:25.508Z,2.25
2019-03-11T18:44:49.447Z,1.80
2019-03-11T18:47:17.372Z,1.82
2019-03-11T18:49:45.802Z,2.02
2019-03-11T18:52:13.900Z,2.33
2019-03-11T18:54:42.042Z,2.30
2019-03-11T18:57:10.152Z,2.20
2019-03-11T18:59:38.391Z,2.12
2019-03-11T19:02:06.240Z,2.17
2019-03-11T19:04:34.649Z,2.00
2019-03-11T19:07:03.804Z,2.13
2019-03-11T19:09:31.649Z,2.33
2019-03-11T19:11:59.470Z,2.35
2019-03-11T19:14:27.676Z,2.25
2019-03-11T19:16:56.576Z,1.90
2019-03-11T19:19:25.133Z,2.55
2019-03-11T19:21:53.261Z,2.30
2019-03-11T19:24:24.875Z,2.10
2019-03-11T19:26:55.700Z,2.30
2019-03-11T19:29:24.519Z,2.83
2019-03-11T19:31:52.733Z,1.53
2019-03-11T19:34:20.593Z,2.08
2019-03-11T19:36:48.757Z,2.10
2019-03-11T19:39:17.680Z,2.43
2019-03-11T19:43:00.751Z,2.03
2019-03-11T19:45:28.037Z,1.90
2019-03-11T19:47:55.610Z,2.00
2019-03-11T19:50:23.112Z,2.08
2019-03-11T19:52:58.613Z,2.35
2019-03-11T19:55:20.131Z,1.90
2019-03-11T19:57:47.354Z,1.82
2019-03-11T20:00:16.705Z,1.92
2019-03-11T20:02:44.004Z,2.30
2019-03-11T20:05:12.232Z,2.20
2019-03-11T20:07:39.864Z,3.37
2019-03-11T20:10:08.703Z,4.28
2019-03-11T20:12:36.392Z,5.67
2019-03-11T20:15:04.672Z,7.10
2019-03-11T20:17:31.792Z,7.67
2019-03-11T20:19:59.228Z,8.10
2019-03-11T20:22:26.346Z,11.63
2019-03-11T20:24:53.738Z,11.50
2019-03-11T20:27:21.150Z,12.98
2019-03-11T20:29:48.329Z,12.60
2019-03-11T20:32:16.784Z,13.25
2019-03-11T20:34:44.642Z,12.88
2019-03-11T20:37:12.751Z,13.20
2019-03-11T20:39:39.902Z,15.32
2019-03-11T20:42:07.376Z,16.17
2019-03-11T20:44:34.404Z,15.15
2019-03-11T20:47:01.825Z,13.60
2019-03-11T20:49:29.421Z,14.87
2019-03-11T20:51:56.492Z,14.75
2019-03-11T20:54:24.294Z,14.07
2019-03-11T20:56:51.367Z,13.95
2019-03-11T20:59:19.076Z,14.38
2019-03-11T21:01:46.332Z,14.28
2019-03-11T21:04:13.365Z,13.62
2019-03-11T21:06:40.706Z,13.48
2019-03-11T21:09:08.828Z,12.23
2019-03-11T21:11:36.467Z,13.03
2019-03-11T21:14:03.623Z,13.15
2019-03-11T21:16:30.993Z,10.13
2019-03-11T21:18:58.263Z,9.20
2019-03-11T21:21:25.892Z,9.48
2019-03-11T21:24:02.023Z,8.38
2019-03-11T21:26:22.438Z,8.95
2019-03-11T21:28:49.780Z,7.22
2019-03-11T21:31:18.299Z,8.35
2019-03-11T21:33:58.030Z,7.55
2019-03-11T21:36:14.995Z,6.75
2019-03-11T21:38:42.680Z,6.87
2019-03-11T21:41:09.736Z,6.67
2019-03-11T21:43:36.979Z,6.95
2019-03-11T21:46:04.232Z,6.58
2019-03-11T21:48:31.883Z,6.65
2019-03-11T21:50:59.193Z,6.80
2019-03-11T21:53:26.278Z,6.35
2019-03-11T21:55:53.393Z,6.17
2019-03-11T21:58:21.411Z,5.85
2019-03-11T22:00:49.628Z,6.40
2019-03-11T22:03:17.543Z,5.90
2019-03-11T22:05:45.177Z,4.42
2019-03-11T22:08:13.113Z,5.80
2019-03-11T22:10:40.412Z,5.40
2019-03-11T22:13:07.522Z,5.80
2019-03-11T22:15:35.430Z,5.15
2019-03-11T22:18:02.823Z,5.53
2019-03-11T22:20:30.559Z,5.45
2019-03-11T22:22:57.617Z,4.90
2019-03-11T22:25:24.621Z,5.00
2019-03-11T22:27:51.786Z,4.33
2019-03-11T22:30:19.029Z,4.53
2019-03-11T22:32:46.327Z,4.50
2019-03-11T22:35:13.627Z,4.85
2019-03-11T22:37:41.423Z,4.80
2019-03-11T22:40:08.941Z,3.80
2019-03-11T22:42:38.830Z,3.72
2019-03-11T22:45:08.571Z,4.22
2019-03-11T22:47:35.520Z,4.28
2019-03-11T22:50:03.208Z,3.75
2019-03-11T22:52:31.053Z,3.72
2019-03-11T22:54:59.345Z,3.87
2019-03-11T22:57:29.598Z,3.80
2019-03-11T22:59:56.687Z,3.45
2019-03-11T23:02:23.777Z,3.65
2019-03-11T23:04:51.231Z,4.28
2019-03-11T23:07:18.385Z,3.33
2019-03-11T23:09:45.632Z,3.55
2019-03-11T23:12:13.763Z,3.55
2019-03-11T23:14:41.788Z,3.92
2019-03-11T23:17:09.007Z,3.70
2019-03-11T23:19:36.162Z,3.42
2019-03-11T23:22:03.848Z,4.22
2019-03-11T23:24:32.449Z,3.35
2019-03-11T23:26:59.839Z,3.42
2019-03-11T23:29:28.257Z,3.08
2019-03-11T23:31:55.801Z,2.77
2019-03-11T23:34:22.897Z,3.15
2019-03-11T23:36:50.172Z,2.62
2019-03-11T23:39:19.207Z,3.02
2019-03-11T23:41:46.252Z,2.90
2019-03-11T23:44:13.337Z,3.02
2019-03-11T23:46:40.425Z,2.77
2019-03-11T23:49:07.557Z,2.85
2019-03-11T23:51:34.581Z,2.70
2019-03-11T23:54:01.943Z,2.83
2019-03-11T23:56:29.100Z,3.05
2019-03-11T23:58:56.144Z,2.60
